Pierre Brunet

Recruteur - AJ Auxerre
25 Nov 2027
Jeudi
Processus

Personnalité

Adaptabilité (11) Ambition (5) Controverse (15) Loyauté (2) Pression (13) Professionnalisme (10) Sportivité (1) Tempérament (16)

Profil

Style d'entraînement Démocratique
Diplôme Continental C
Détermination 4
Gestion des joueurs 13
Motivation 8
Discipline 4
Satisfaction professionnelle
100%
Fatigue
0%
Rôle Recruteur
Salaire 36.0K p/s
Contrat 14.03.2028

Performance

Comportement Bon
Efficacité de l'entraînement
39%
Développement des joueurs
30%
Prévention des blessures
30%
Mise en place tactique
25%

Événements récents

A participé à une réunion de recrutement maintenant
A recommandé une cible de transfert maintenant
A recommandé une cible de transfert 7j
A évalué un joueur 7j
A évalué un joueur 7j
A évalué un joueur 7j
A évalué un joueur 7j
A évalué un joueur 7j

Suivi en cours

117
Joueur Club Statut Capacité Confiance Observé Dernière observation Dernier vote
Mauro Carrizo Atlético Tucumán Actif 95 / 113 40% 2 24.11.2027 -
Alejandro Almaraz Nueva Chicago Actif 103 / 120 40% 1 24.11.2027 -
Giovanni Leoni Bradford City Actif 128 / 136 40% 3 23.11.2027 -
Lucas Mbamba Westerlo Actif 94 / 99 40% 1 20.11.2027 -
Ibrahim Coulibaly Clermont Foot Actif 126 / 125 40% 2 19.11.2027 -
Ayden Heaven Luton Town Actif 153 / 151 40% 3 18.11.2027 -
Hervin Goyes Deportivo Pasto Actif 96 / 106 40% 3 18.11.2027 -
Esquerdinha Shrewsbury Town Actif 123 / 123 40% 1 17.11.2027 -
Axel Tape Bayer Leverkusen Actif 132 / 125 40% 1 17.11.2027 -
Mikkel Hope Haugesund Actif 116 / 100 40% 5 16.11.2027 -
Honest Ahanor Atalanta Actif 137 / 151 40% 3 16.11.2027 -
Enzo Koffi Le Havre AC Actif 124 / 110 40% 2 15.11.2027 -
Joel Ezra Enyimba Actif 86 / 91 40% 1 15.11.2027 -
Louis Leroux FC Nantes Actif 119 / 141 40% 3 14.11.2027 -
Colin Guske Orlando City Actif 79 / 99 40% 1 14.11.2027 -
Khalis Merah Toulouse FC Actif 119 / 130 40% 4 13.11.2027 -
Lucas Høgsberg RC Strasbourg Actif 130 / 153 40% 7 12.11.2027 -
Dominik Chong Qui Atlanta United FC Actif 98 / 98 40% 2 12.11.2027 -
Christos Mouzakitis Hull City Actif 146 / 140 40% 4 11.11.2027 -
Josh Nichols Tranmere Rovers Actif 129 / 124 40% 2 11.11.2027 -
Nicolas Sport Recife Actif 115 / 114 40% 4 08.11.2027 -
Archie Gray Derby County Actif 158 / 144 40% 4 08.11.2027 -
Nika Kvaratskhelia Tskhinvali Actif 105 / 104 40% 1 07.11.2027 -
Alpha Touré FC Metz Actif 118 / 116 40% 1 06.11.2027 -
Luis Otávio Colorado Rapids Actif 103 / 135 40% 4 05.11.2027 -
Sebastián Ramírez Jaguares Actif 101 / 114 40% 5 24.10.2027 -
Jens Hjertø-Dahl Hull City Actif 132 / 139 40% 2 20.10.2027 -
Fillip Jenssen Riise Stabaek Actif 118 / 111 40% 1 20.10.2027 -
Kauã Moraes Cruzeiro Actif 125 / 133 40% 4 18.10.2027 -
Esteban de Lima Tacuarembo Actif 84 / 88 40% 2 18.10.2027 -
Muminhon Bahodirxonov Neftchi Actif 91 / 109 40% 1 17.10.2027 -
Pedro Soma San Diego Football Club Actif 87 / 97 40% 1 17.10.2027 -
Jovan Milosavljević Kalmar FF Actif 81 / 120 40% 1 14.10.2027 -
Nazareno Roselli Defensa y Justicia Actif 103 / 130 40% 2 09.10.2027 -
Agustín Obregón River Plate Actif 100 / 111 40% 2 09.10.2027 -
Olaniyi Saheed Kwara United Actif 88 / 83 40% 3 08.10.2027 -
Lucas Bergvall Tottenham Actif 150 / 154 40% 2 08.10.2027 -
Hosea Michael Remo Stars Actif 85 / 81 40% 4 06.10.2027 -
Gift Udoh Ikorodu City Actif 78 / 77 40% 2 05.10.2027 -
Diego Vargas San Marcos de Arica Actif 85 / 92 40% 1 03.10.2027 -
David Odogu AC Milan Actif 121 / 121 40% 2 02.10.2027 -
Mads Bomholt Stabaek Actif 123 / 104 40% 1 29.09.2027 -
Noah Mawete Kinsiona Waasland-Beveren Actif 96 / 107 40% 2 24.09.2027 -
Mpho Khethang AS Police Actif 78 / 85 40% 1 20.09.2027 -
Pape Diong Westerlo Actif 107 / 128 40% 4 19.09.2027 -
Josh King Chelsea Actif 151 / 148 40% 3 17.09.2027 -
David Valencia Alianza Petrolera Actif 120 / 139 40% 1 17.09.2027 -
Tyson Pearce St. Louis CITY SC Actif 78 / 81 40% 1 14.09.2027 -
José Correa Deportivo Tachira Actif 97 / 89 40% 1 14.09.2027 -
Mohamed Moussa Koïta Djoliba Actif 110 / 105 40% 2 12.09.2027 -
Mathys Angély VfL Wolfsburg Actif 114 / 132 40% 1 08.09.2027 -
Giacomo Raspadori Atalanta Actif 153 / 145 40% 1 10.08.2027 -
Petar Musa Adana Demirspor Actif 140 / 127 40% 2 02.08.2027 -
Morgan Whittaker Middlesbrough Actif 138 / 133 40% 1 02.08.2027 -
Yousef Salech Cardiff City Actif 138 / 136 40% 1 07.07.2027 -
Konstantin Tyukavin Inter Négociation 132 / 133 66% 1 01.06.2027 -
Martin Cedidla Spartak Moscow Négociation 131 / 132 66% 1 01.06.2027 -
Sampson Dweh Anderlecht Rapport prêt 133 / 134 66% 1 01.06.2027 -
Kota Tawaratsumida River Plate Négociation 133 / 136 66% 1 01.06.2027 -
Nicolás Fernández Mercau Shakhtar Actif 134 / 134 90% 1 01.06.2027 Approuver
Cheveyo Tsawa Club Brugge Actif 129 / 126 40% 3 31.05.2027 -
Matías Gómez Granada Actif 104 / 130 40% 2 31.05.2027 -
Zane Albarus Cambridge United Actif 94 / 92 40% 1 30.05.2027 -
Finn Jeltsch VfB Stuttgart Actif 148 / 145 40% 1 29.05.2027 -
Percy Jali Free State Stars Actif 100 / 117 40% 3 28.05.2027 -
Warren Zaïre-Emery Paris Saint-Germain Actif 146 / 171 40% 5 25.05.2027 -
Riley Owen Trento Actif 100 / 108 40% 1 25.05.2027 -
Christ Inao Oulaï Fiorentina Actif 142 / 128 40% 2 23.05.2027 -
João Simões Sporting CP Actif 124 / 148 40% 3 22.05.2027 -
Dylan Lawlor Cardiff City Actif 120 / 111 40% 1 20.05.2027 -
Jofre Torrents Ajax Actif 116 / 135 40% 3 17.05.2027 -
Tiago Freitas Benfica Actif 111 / 122 40% 1 16.05.2027 -
Bernardo Lima Porto Actif 95 / 109 40% 1 15.05.2027 -
Davide Bartesaghi AC Milan Actif 140 / 146 40% 3 14.05.2027 -
Daniel Kelly Oxford United Actif 105 / 120 40% 1 14.05.2027 -
Sascha Britschgi Padova Actif 112 / 129 40% 1 12.05.2027 -
Ernie Weaver AFC Wimbledon Actif 99 / 105 40% 2 10.05.2027 -
Noah Nartey Olympique Lyonnais Actif 136 / 145 40% 2 06.05.2027 -
Kevin Vazquez Cruz Azul Actif 129 / 138 40% 2 02.05.2027 -
Jan Bürger Gillingham Actif 120 / 123 40% 3 29.04.2027 -
Caleb Yirenkyi Coventry City Actif 126 / 147 40% 3 24.04.2027 -
Toni Tamarit Alverca Actif 127 / 111 40% 2 23.04.2027 -
José Pachuca Puebla Actif 96 / 105 40% 1 21.04.2027 -
Adam Bakoune Ospitaletto Actif 99 / 110 40% 1 20.04.2027 -
Kazunari Kita Real Sociedad Actif 108 / 109 40% 2 19.04.2027 -
Yussif Saidu Zaragoza Actif 130 / 123 40% 1 18.04.2027 -
Martim Cunha Porto Actif 90 / 115 40% 1 14.04.2027 -
Keagan Tau Ajax Cape Town Actif 92 / 99 40% 1 07.04.2027 -
Daniel Vernattus Metalist Actif 86 / 102 40% 1 02.04.2027 -
Ibrahim Maza Bayer Leverkusen Actif 148 / 152 40% 1 31.03.2027 -
Gonçalo Oliveira Benfica Actif 109 / 126 40% 1 22.03.2027 -
Joaquin Seys Club Brugge Actif 127 / 142 40% 1 21.03.2027 -
Jack Hinshelwood Brighton Actif 134 / 145 40% 1 21.03.2027 -
Josh Tymon Swansea City Actif 127 / 127 40% 1 30.12.2026 -
Tiago Santos LOSC Lille Actif 157 / 141 40% 1 30.12.2026 -
Richard Gonzalez Chamois Niortais Actif 135 / 137 40% 2 29.12.2026 -
Marco Kana Anderlecht Actif 123 / 126 40% 1 27.12.2026 -
Abner Vinicius Olympique Lyonnais Actif 146 / 136 40% 1 27.12.2026 -
Doğucan Haspolat Westerlo Actif 112 / 116 40% 2 26.12.2026 -
Mats Wieffer Brighton Actif 146 / 137 40% 1 26.12.2026 -
Freddie Potts Club Brugge Actif 128 / 130 40% 2 25.12.2026 -
James Garner Everton Actif 155 / 161 40% 1 25.12.2026 -
Tyler Adams Bournemouth Actif 146 / 146 40% 2 23.12.2026 -
Omar Campos Cruz Azul Actif 126 / 129 40% 1 11.12.2026 -
Matteo Dams Club Brugge Actif 118 / 133 40% 2 05.12.2026 -
Harry Clarke Preston Actif 130 / 123 40% 1 05.12.2026 -
Ethan Galbraith Swansea City Actif 127 / 135 40% 1 04.12.2026 -
Kevin Amaro Racing Genk Actif 124 / 135 40% 1 04.12.2026 -
José Marsà KV Mechelen Actif 133 / 113 40% 1 03.12.2026 -
Jesús Orozco Chiquete Cruz Azul Actif 110 / 131 40% 1 01.12.2026 -
Quinten Timber Crystal Palace Actif 150 / 147 40% 1 01.12.2026 -
Adam Wharton Crystal Palace Actif 148 / 157 40% 1 04.11.2026 -
Willian Pacho Paris Saint-Germain Actif 173 / 168 40% 1 06.10.2026 -
Joaquín García Vélez Actif 140 / 114 40% 1 06.10.2026 -
Calvin Bassey Fulham Actif 157 / 146 40% 1 08.09.2026 -
Aiham Ousou Charleroi Actif 139 / 121 40% 1 08.09.2026 -
Ethan Ampadu Leeds United Actif 129 / 137 40% 1 07.09.2026 -